Time;durP1;ratioP1;P1;durP2;ratioP2;P2;SDS_P1;SDS_P2;PMS_P1;PMS_P2;Temp;Humidity;BMP_temperature;BMP_pressure;BME280_temperature;BME280_humidity;BME280_pressure;Samples;Min_cycle;Max_cycle;Signal;HPM_P1;HPM_P2
2023/04/28 00:00:11;;;;;;;0.30;0.30;;;2.40;99.90;;;;;;5049983;28;20186;-85
2023/04/28 00:02:37;;;;;;;0.30;0.30;;;2.40;99.90;;;;;;5043280;28;20199;-86
2023/04/28 00:05:03;;;;;;;0.30;0.30;;;2.40;99.90;;;;;;5046249;28;20489;-86
2023/04/28 00:07:28;;;;;;;0.30;0.30;;;2.30;99.90;;;;;;5041426;28;20693;-85
2023/04/28 00:09:55;;;;;;;0.30;0.30;;;2.40;99.90;;;;;;5045781;28;20265;-85
2023/04/28 00:12:21;;;;;;;0.30;0.30;;;2.30;99.90;;;;;;5052947;28;20221;-86
2023/04/28 00:14:46;;;;;;;0.30;0.30;;;2.30;99.90;;;;;;5042614;28;20473;-85
2023/04/28 00:17:12;;;;;;;0.30;0.30;;;2.30;99.90;;;;;;5037951;28;20214;-84
2023/04/28 00:19:37;;;;;;;0.30;0.30;;;2.40;99.90;;;;;;5037117;28;20187;-85
2023/04/28 00:22:03;;;;;;;0.30;0.30;;;2.40;99.90;;;;;;5038513;28;20189;-84
2023/04/28 00:24:29;;;;;;;0.30;0.30;;;2.30;99.90;;;;;;5035757;28;20195;-85
2023/04/28 00:26:56;;;;;;;0.30;0.30;;;2.50;99.90;;;;;;5030313;28;20442;-84
2023/04/28 00:29:21;;;;;;;0.30;0.30;;;2.30;99.90;;;;;;5040528;28;20597;-84
2023/04/28 00:31:47;;;;;;;0.30;0.30;;;2.30;99.90;;;;;;5032047;28;21049;-85
2023/04/28 00:34:13;;;;;;;0.37;0.37;;;2.40;99.90;;;;;;5040089;28;20188;-85
2023/04/28 00:36:39;;;;;;;0.30;0.30;;;2.40;99.90;;;;;;5034091;28;20330;-85
2023/04/28 00:39:05;;;;;;;0.30;0.30;;;2.30;99.90;;;;;;5044844;28;20536;-85
2023/04/28 00:41:30;;;;;;;0.30;0.30;;;2.40;99.90;;;;;;5031174;28;20235;-85
2023/04/28 00:43:56;;;;;;;0.30;0.30;;;2.40;99.90;;;;;;5037064;28;20206;-85
2023/04/28 00:46:24;;;;;;;0.40;0.40;;;2.30;99.90;;;;;;5042731;28;20194;-85
2023/04/28 00:48:49;;;;;;;0.27;0.27;;;2.20;99.90;;;;;;5031663;28;20187;-85
2023/04/28 00:51:16;;;;;;;0.30;0.30;;;2.10;99.90;;;;;;5026874;28;20524;-85
2023/04/28 00:53:42;;;;;;;0.20;0.20;;;2.20;99.90;;;;;;5032007;28;20192;-85
2023/04/28 00:56:08;;;;;;;0.30;0.30;;;2.20;99.90;;;;;;5031139;28;20450;-85
2023/04/28 00:58:34;;;;;;;0.40;0.40;;;2.00;99.90;;;;;;5037144;28;20461;-85
2023/04/28 01:01:04;;;;;;;0.37;0.37;;;2.00;99.90;;;;;;5044142;28;20517;-85
2023/04/28 01:03:31;;;;;;;0.40;0.40;;;1.80;99.90;;;;;;5044508;28;20195;-85
2023/04/28 01:05:58;;;;;;;0.40;0.40;;;1.90;99.90;;;;;;5031692;28;20448;-85
2023/04/28 01:08:29;;;;;;;0.40;0.40;;;2.00;99.90;;;;;;5037485;28;20457;-85
2023/04/28 01:10:54;;;;;;;0.30;0.30;;;1.90;99.90;;;;;;5038540;28;20445;-85
2023/04/28 01:13:20;;;;;;;0.40;0.40;;;1.80;99.90;;;;;;5031994;28;20429;-85
2023/04/28 01:15:46;;;;;;;0.40;0.40;;;1.90;99.90;;;;;;5034128;28;20184;-86
2023/04/28 01:18:12;;;;;;;0.30;0.30;;;1.90;99.90;;;;;;5031027;28;20211;-85
2023/04/28 01:20:37;;;;;;;0.40;0.40;;;1.90;99.90;;;;;;5035057;28;20233;-85
2023/04/28 01:23:03;;;;;;;0.33;0.33;;;1.80;99.90;;;;;;5047306;28;20549;-84
2023/04/28 01:25:29;;;;;;;0.30;0.30;;;2.00;99.90;;;;;;5030266;28;20183;-84
2023/04/28 01:27:54;;;;;;;0.30;0.30;;;2.20;99.90;;;;;;5036326;28;20225;-85
2023/04/28 01:30:20;;;;;;;0.40;0.40;;;2.10;99.90;;;;;;5039437;28;20194;-85
2023/04/28 01:32:45;;;;;;;0.40;0.40;;;1.90;99.90;;;;;;5037585;28;20175;-85
2023/04/28 01:35:11;;;;;;;0.30;0.30;;;1.80;99.90;;;;;;5034415;28;20554;-85
2023/04/28 01:37:36;;;;;;;0.30;0.30;;;1.80;99.90;;;;;;5053058;28;20263;-85
2023/04/28 01:40:02;;;;;;;0.30;0.30;;;1.80;99.90;;;;;;5041509;28;20182;-85
2023/04/28 01:42:28;;;;;;;0.40;0.40;;;1.80;99.90;;;;;;5038763;28;20227;-85
2023/04/28 01:44:53;;;;;;;0.20;0.20;;;1.70;99.90;;;;;;5030683;28;20761;-85
2023/04/28 01:47:19;;;;;;;0.40;0.40;;;1.80;99.90;;;;;;5047339;28;20186;-84
2023/04/28 01:49:46;;;;;;;0.30;0.30;;;1.80;99.90;;;;;;5031720;28;20765;-85
2023/04/28 01:52:12;;;;;;;0.30;0.30;;;1.70;99.90;;;;;;5041683;28;20237;-85
2023/04/28 01:54:38;;;;;;;0.40;0.40;;;1.70;99.90;;;;;;5043016;28;20501;-87
2023/04/28 01:57:03;;;;;;;0.30;0.30;;;1.70;99.90;;;;;;5047521;28;20214;-87
2023/04/28 01:59:28;;;;;;;0.37;0.37;;;1.60;99.90;;;;;;5041858;28;20210;-86
2023/04/28 02:01:54;;;;;;;0.30;0.30;;;1.70;99.90;;;;;;5036077;28;20651;-86
2023/04/28 02:04:20;;;;;;;0.30;0.30;;;1.70;99.90;;;;;;5027459;28;20188;-87
2023/04/28 02:06:45;;;;;;;0.33;0.33;;;1.70;99.90;;;;;;5030221;28;20202;-87
2023/04/28 02:09:11;;;;;;;0.23;0.23;;;1.70;99.90;;;;;;5041676;28;20208;-87
2023/04/28 02:11:36;;;;;;;0.30;0.30;;;1.80;99.90;;;;;;5033283;28;20186;-87
2023/04/28 02:14:02;;;;;;;0.20;0.20;;;2.00;99.90;;;;;;5034980;28;20191;-86
2023/04/28 02:16:27;;;;;;;0.40;0.40;;;2.00;99.90;;;;;;5030554;28;20222;-87
2023/04/28 02:18:53;;;;;;;0.33;0.33;;;2.00;99.90;;;;;;5039908;28;20198;-87
2023/04/28 02:21:18;;;;;;;0.40;0.40;;;2.00;99.90;;;;;;5039565;28;20195;-84
2023/04/28 02:23:44;;;;;;;0.37;0.37;;;2.00;99.90;;;;;;5046841;28;20209;-85
2023/04/28 02:26:10;;;;;;;0.30;0.30;;;2.00;99.90;;;;;;5033062;28;20214;-85
2023/04/28 02:28:35;;;;;;;0.30;0.30;;;1.90;99.90;;;;;;5044369;28;20183;-84
2023/04/28 02:31:05;;;;;;;0.30;0.30;;;1.90;99.90;;;;;;5038484;28;20209;-85
2023/04/28 02:33:31;;;;;;;0.30;0.30;;;1.80;99.90;;;;;;5048430;28;20217;-85
2023/04/28 02:36:04;;;;;;;0.30;0.30;;;1.80;99.90;;;;;;5035705;28;21029;-85
2023/04/28 02:38:30;;;;;;;0.30;0.30;;;1.80;99.90;;;;;;5034340;28;20217;-85
2023/04/28 02:41:00;;;;;;;0.23;0.23;;;1.80;99.90;;;;;;5041791;28;20445;-85
2023/04/28 02:43:27;;;;;;;0.40;0.40;;;1.80;99.90;;;;;;5044102;28;20460;-85
2023/04/28 02:45:53;;;;;;;0.40;0.40;;;1.80;99.90;;;;;;5035130;28;20441;-85
2023/04/28 02:48:18;;;;;;;0.20;0.20;;;1.80;99.90;;;;;;5035415;28;20443;-85
2023/04/28 02:50:47;;;;;;;0.40;0.40;;;1.90;99.90;;;;;;5035052;28;20448;-86
2023/04/28 02:53:12;;;;;;;0.20;0.20;;;1.80;99.90;;;;;;5043866;28;20182;-85
2023/04/28 02:55:38;;;;;;;0.30;0.30;;;1.80;99.90;;;;;;5033331;28;20505;-85
2023/04/28 02:58:04;;;;;;;0.30;0.30;;;1.80;99.90;;;;;;5044045;28;20218;-85
2023/04/28 03:00:29;;;;;;;0.30;0.30;;;1.70;99.90;;;;;;5038369;28;20361;-85
2023/04/28 03:02:55;;;;;;;0.30;0.30;;;1.80;99.90;;;;;;5038489;28;20188;-85
2023/04/28 03:05:20;;;;;;;0.30;0.30;;;1.70;99.90;;;;;;5036062;28;20223;-85
2023/04/28 03:07:46;;;;;;;0.30;0.30;;;1.80;99.90;;;;;;5020438;28;20258;-85
2023/04/28 03:10:12;;;;;;;0.30;0.30;;;1.80;99.90;;;;;;5034010;28;20194;-86
2023/04/28 03:12:37;;;;;;;0.30;0.30;;;1.80;99.90;;;;;;5028671;28;20184;-85
2023/04/28 03:15:03;;;;;;;0.20;0.20;;;1.80;99.90;;;;;;5029230;28;20186;-84
2023/04/28 03:17:28;;;;;;;0.40;0.40;;;1.90;99.90;;;;;;5044792;28;20759;-85
2023/04/28 03:19:54;;;;;;;0.30;0.30;;;1.90;99.90;;;;;;5035754;28;20202;-85
2023/04/28 03:22:20;;;;;;;0.30;0.30;;;1.90;99.90;;;;;;5035565;28;20202;-85
2023/04/28 03:24:45;;;;;;;0.30;0.30;;;1.80;99.90;;;;;;5031278;28;20191;-85
2023/04/28 03:27:11;;;;;;;0.30;0.30;;;1.80;99.90;;;;;;5039012;28;20563;-85
2023/04/28 03:29:36;;;;;;;0.30;0.30;;;1.80;99.90;;;;;;5046462;28;20179;-85
2023/04/28 03:32:02;;;;;;;0.30;0.30;;;1.80;99.90;;;;;;5047224;28;20225;-85
2023/04/28 03:34:27;;;;;;;0.30;0.30;;;1.90;99.90;;;;;;5050132;28;20184;-85
2023/04/28 03:36:53;;;;;;;0.30;0.30;;;1.90;99.90;;;;;;5037042;28;20207;-85
2023/04/28 03:39:19;;;;;;;0.40;0.40;;;1.90;99.90;;;;;;5042932;28;20214;-85
2023/04/28 03:41:44;;;;;;;0.30;0.30;;;1.90;99.90;;;;;;5041690;28;20250;-85
2023/04/28 03:44:10;;;;;;;0.30;0.30;;;1.90;99.90;;;;;;5032737;28;20187;-85
2023/04/28 03:46:35;;;;;;;0.37;0.37;;;1.90;99.90;;;;;;5037190;28;20191;-85
2023/04/28 03:49:01;;;;;;;0.40;0.40;;;2.00;99.90;;;;;;5036806;28;20186;-85
2023/04/28 03:51:28;;;;;;;0.30;0.30;;;1.90;99.90;;;;;;5032961;28;20184;-85
2023/04/28 03:53:54;;;;;;;0.20;0.20;;;1.90;99.90;;;;;;5042344;28;20266;-85
2023/04/28 03:56:19;;;;;;;0.40;0.40;;;1.80;99.90;;;;;;5044468;28;20462;-85
2023/04/28 03:58:45;;;;;;;0.23;0.23;;;1.70;99.90;;;;;;5042952;28;20489;-85
2023/04/28 04:01:11;;;;;;;0.30;0.30;;;1.70;99.90;;;;;;5044172;28;20198;-85
2023/04/28 04:03:36;;;;;;;0.40;0.40;;;1.80;99.90;;;;;;5032430;28;20206;-86
2023/04/28 04:06:02;;;;;;;0.30;0.30;;;1.90;99.90;;;;;;5039901;28;20270;-85
2023/04/28 04:08:28;;;;;;;0.40;0.40;;;1.80;99.90;;;;;;5048003;28;20269;-85
2023/04/28 04:10:54;;;;;;;0.30;0.30;;;1.80;99.90;;;;;;5034295;28;20188;-85
2023/04/28 04:13:20;;;;;;;0.33;0.33;;;1.80;99.90;;;;;;5033893;28;20445;-85
2023/04/28 04:15:46;;;;;;;0.30;0.30;;;1.80;99.90;;;;;;5041605;28;20437;-86
2023/04/28 04:18:13;;;;;;;0.30;0.30;;;1.90;99.90;;;;;;5049305;28;20529;-85
2023/04/28 04:20:39;;;;;;;0.23;0.23;;;1.80;99.90;;;;;;5049202;28;20190;-85
2023/04/28 04:23:04;;;;;;;0.40;0.40;;;1.70;99.90;;;;;;5044697;28;20448;-84
2023/04/28 04:25:31;;;;;;;0.30;0.30;;;1.80;99.90;;;;;;5034098;28;20191;-84
2023/04/28 04:27:57;;;;;;;0.40;0.40;;;1.70;99.90;;;;;;5040477;28;20186;-85
2023/04/28 04:30:22;;;;;;;0.30;0.30;;;1.70;99.90;;;;;;5039642;28;21040;-84
2023/04/28 04:32:48;;;;;;;0.30;0.30;;;1.80;99.90;;;;;;5042234;28;21297;-85
2023/04/28 04:35:13;;;;;;;0.37;0.37;;;1.70;99.90;;;;;;5035316;28;20266;-84
2023/04/28 04:37:39;;;;;;;0.30;0.30;;;1.80;99.90;;;;;;5043743;28;20215;-85
2023/04/28 04:40:06;;;;;;;0.40;0.40;;;1.70;99.90;;;;;;5047552;28;20183;-85
2023/04/28 04:42:32;;;;;;;0.30;0.30;;;1.80;99.90;;;;;;5046833;28;20234;-85
2023/04/28 04:44:57;;;;;;;0.33;0.33;;;2.00;99.90;;;;;;5040339;28;20774;-85
2023/04/28 04:47:23;;;;;;;0.37;0.37;;;2.10;99.90;;;;;;5036552;28;20194;-85
2023/04/28 04:49:49;;;;;;;0.30;0.30;;;2.00;99.90;;;;;;5043502;28;20203;-85
2023/04/28 04:52:14;;;;;;;0.40;0.40;;;2.00;99.90;;;;;;5037799;28;20324;-85
2023/04/28 04:54:40;;;;;;;0.40;0.40;;;1.90;99.90;;;;;;5043025;28;20441;-85
2023/04/28 04:57:06;;;;;;;0.40;0.40;;;2.00;99.90;;;;;;5037260;28;20218;-85
2023/04/28 04:59:32;;;;;;;0.50;0.50;;;2.10;99.90;;;;;;5044543;28;20227;-85
2023/04/28 05:01:57;;;;;;;0.40;0.40;;;2.10;99.90;;;;;;5034264;28;20575;-86
2023/04/28 05:04:23;;;;;;;0.50;0.50;;;2.10;99.90;;;;;;5041238;28;20309;-85
2023/04/28 05:06:48;;;;;;;0.40;0.40;;;2.30;99.90;;;;;;5033123;28;20234;-83
2023/04/28 05:09:14;;;;;;;0.40;0.40;;;2.30;99.90;;;;;;5046802;28;20554;-83
2023/04/28 05:11:40;;;;;;;0.30;0.30;;;2.40;99.90;;;;;;5037703;28;20335;-84
2023/04/28 05:14:05;;;;;;;0.40;0.40;;;2.40;99.90;;;;;;5030750;28;20183;-82
2023/04/28 05:16:31;;;;;;;0.40;0.40;;;2.60;99.90;;;;;;5052807;28;20831;-82
2023/04/28 05:18:56;;;;;;;0.40;0.40;;;2.70;99.90;;;;;;5036862;28;20275;-83
2023/04/28 05:21:22;;;;;;;0.40;0.40;;;2.90;99.90;;;;;;5045462;28;20199;-83
2023/04/28 05:23:48;;;;;;;0.40;0.40;;;3.10;99.90;;;;;;5039782;28;20720;-82
2023/04/28 05:26:13;;;;;;;0.40;0.40;;;3.20;99.90;;;;;;5035059;28;20191;-83
2023/04/28 05:28:40;;;;;;;0.40;0.40;;;3.40;99.90;;;;;;5044842;28;20183;-83
2023/04/28 05:31:06;;;;;;;0.30;0.30;;;3.60;99.90;;;;;;5028683;28;20217;-83
2023/04/28 05:33:31;;;;;;;0.30;0.30;;;3.90;99.90;;;;;;5035353;28;20469;-84
2023/04/28 05:35:57;;;;;;;0.30;0.30;;;4.10;99.90;;;;;;5032835;28;20192;-85
2023/04/28 05:38:22;;;;;;;0.30;0.30;;;4.30;99.90;;;;;;5028040;28;20222;-84
2023/04/28 05:40:48;;;;;;;0.30;0.30;;;4.50;99.90;;;;;;5032648;28;20214;-83
2023/04/28 05:43:13;;;;;;;0.30;0.30;;;4.80;99.90;;;;;;5034294;28;20238;-83
2023/04/28 05:45:39;;;;;;;0.30;0.30;;;4.90;99.90;;;;;;5033685;28;20198;-84
2023/04/28 05:48:05;;;;;;;0.20;0.20;;;5.00;99.90;;;;;;5053650;28;20381;-84
2023/04/28 05:50:31;;;;;;;0.27;0.27;;;5.20;99.90;;;;;;5031968;28;20442;-84
2023/04/28 05:52:56;;;;;;;0.20;0.20;;;5.30;99.90;;;;;;5035123;28;20187;-82
2023/04/28 05:55:22;;;;;;;0.20;0.20;;;5.50;99.90;;;;;;5047276;28;20219;-85
2023/04/28 05:57:47;;;;;;;0.27;0.27;;;5.70;99.90;;;;;;5046246;28;20222;-85
2023/04/28 06:00:14;;;;;;;0.20;0.20;;;5.90;99.90;;;;;;5046757;28;20189;-84
2023/04/28 06:02:39;;;;;;;0.30;0.30;;;6.00;99.90;;;;;;5034329;28;20195;-85
2023/04/28 06:05:06;;;;;;;0.20;0.20;;;6.00;99.90;;;;;;5025485;28;20438;-84
2023/04/28 06:07:31;;;;;;;0.20;0.20;;;6.10;99.90;;;;;;5030542;28;20198;-85
2023/04/28 06:09:57;;;;;;;0.20;0.20;;;6.10;99.90;;;;;;5039576;28;20461;-84
2023/04/28 06:12:23;;;;;;;0.20;0.20;;;6.10;99.90;;;;;;5033183;28;20187;-85
2023/04/28 06:14:48;;;;;;;0.20;0.20;;;6.20;99.90;;;;;;5038710;28;20191;-83
2023/04/28 06:17:14;;;;;;;0.20;0.20;;;6.20;99.90;;;;;;5029298;28;20211;-83
2023/04/28 06:19:39;;;;;;;0.20;0.20;;;6.30;99.90;;;;;;5027463;28;20549;-84
2023/04/28 06:22:05;;;;;;;0.20;0.20;;;6.30;99.90;;;;;;5032816;28;20190;-84
2023/04/28 06:24:30;;;;;;;0.20;0.20;;;6.40;99.90;;;;;;5026477;28;20283;-84
2023/04/28 06:26:56;;;;;;;0.17;0.17;;;6.30;99.90;;;;;;5023036;28;20261;-84
2023/04/28 06:29:22;;;;;;;0.20;0.20;;;6.40;99.90;;;;;;5027041;28;20186;-85
2023/04/28 06:31:48;;;;;;;0.13;0.13;;;6.40;99.90;;;;;;5034271;28;20320;-85
2023/04/28 06:34:14;;;;;;;0.20;0.20;;;6.40;99.90;;;;;;5028226;28;20563;-85
2023/04/28 06:36:41;;;;;;;0.20;0.20;;;6.40;99.90;;;;;;5026181;28;20260;-85
2023/04/28 06:39:07;;;;;;;0.20;0.20;;;6.50;99.90;;;;;;5033239;28;20191;-85
2023/04/28 06:41:32;;;;;;;0.20;0.20;;;6.70;99.90;;;;;;5025931;28;20471;-85
2023/04/28 06:43:58;;;;;;;0.30;0.30;;;6.80;99.90;;;;;;5029012;28;20811;-84
2023/04/28 06:46:23;;;;;;;0.30;0.30;;;6.80;99.90;;;;;;5027373;28;20195;-84
2023/04/28 06:48:49;;;;;;;0.30;0.30;;;7.00;99.90;;;;;;5054107;28;20249;-83
2023/04/28 06:51:14;;;;;;;0.20;0.20;;;7.30;99.90;;;;;;5038145;28;20255;-83
2023/04/28 06:53:40;;;;;;;0.30;0.30;;;7.50;99.90;;;;;;5026450;28;20348;-83
2023/04/28 06:56:06;;;;;;;0.20;0.20;;;7.70;99.90;;;;;;5047728;28;20712;-84
2023/04/28 06:58:31;;;;;;;0.10;0.10;;;7.90;99.90;;;;;;5034380;28;20226;-81
2023/04/28 07:00:57;;;;;;;0.30;0.30;;;8.10;99.90;;;;;;5040078;28;20448;-83
2023/04/28 07:03:22;;;;;;;0.23;0.23;;;8.10;99.90;;;;;;5039142;28;20269;-82
2023/04/28 07:05:48;;;;;;;0.10;0.10;;;8.30;99.90;;;;;;5040835;28;20210;-84
2023/04/28 07:08:13;;;;;;;0.20;0.20;;;8.50;99.90;;;;;;5041258;28;20230;-85
2023/04/28 07:10:39;;;;;;;0.20;0.20;;;8.50;99.90;;;;;;5045655;28;20201;-82
2023/04/28 07:13:04;;;;;;;0.20;0.20;;;8.60;99.90;;;;;;5052383;28;20216;-84
2023/04/28 07:15:30;;;;;;;0.20;0.20;;;8.70;99.90;;;;;;5042436;28;20542;-85
2023/04/28 07:17:56;;;;;;;0.20;0.20;;;8.80;99.90;;;;;;5038930;28;20240;-85
2023/04/28 07:20:21;;;;;;;0.20;0.20;;;8.90;99.90;;;;;;5035194;28;20180;-84
2023/04/28 07:22:47;;;;;;;0.20;0.20;;;8.90;99.90;;;;;;5031531;28;20183;-82
2023/04/28 07:25:12;;;;;;;0.20;0.20;;;8.90;99.90;;;;;;5038312;28;20549;-83
2023/04/28 07:27:38;;;;;;;0.20;0.20;;;8.90;99.90;;;;;;5033190;28;20183;-81
2023/04/28 07:30:04;;;;;;;0.20;0.20;;;9.10;99.90;;;;;;5030720;28;20237;-81
2023/04/28 07:32:30;;;;;;;0.10;0.10;;;9.10;99.90;;;;;;5051841;28;20329;-82
2023/04/28 07:34:55;;;;;;;0.20;0.20;;;9.30;99.90;;;;;;5046652;28;20899;-83
2023/04/28 07:37:22;;;;;;;0.10;0.10;;;9.40;99.90;;;;;;5039837;28;20279;-80
2023/04/28 07:39:47;;;;;;;0.10;0.10;;;9.70;99.90;;;;;;5043708;28;20192;-80
2023/04/28 07:42:13;;;;;;;0.10;0.10;;;9.80;99.90;;;;;;5035858;28;20840;-81
2023/04/28 07:44:38;;;;;;;0.10;0.10;;;9.80;99.90;;;;;;5030895;28;20265;-82
2023/04/28 07:47:04;;;;;;;0.07;0.07;;;10.00;99.90;;;;;;5039334;28;20183;-83
2023/04/28 07:49:30;;;;;;;0.10;0.10;;;10.20;99.90;;;;;;5042176;28;20190;-80
2023/04/28 07:51:55;;;;;;;0.10;0.10;;;10.30;99.90;;;;;;5048291;28;20214;-82
2023/04/28 07:54:21;;;;;;;0.10;0.10;;;10.50;99.90;;;;;;5047049;28;20199;-83
2023/04/28 07:56:47;;;;;;;0.10;0.10;;;10.70;99.90;;;;;;5031030;28;20214;-82
2023/04/28 07:59:13;;;;;;;0.10;0.10;;;10.90;99.90;;;;;;5031664;28;20199;-82
2023/04/28 08:01:38;;;;;;;0.10;0.10;;;10.80;99.90;;;;;;5033053;28;20194;-82
2023/04/28 08:04:04;;;;;;;0.10;0.10;;;10.70;99.90;;;;;;5041363;28;20454;-80
2023/04/28 08:06:30;;;;;;;0.10;0.10;;;11.00;99.90;;;;;;5050786;28;20190;-86
2023/04/28 08:08:55;;;;;;;0.10;0.10;;;11.40;99.90;;;;;;5043886;28;21189;-82
2023/04/28 08:11:21;;;;;;;0.10;0.10;;;11.60;99.90;;;;;;5045474;28;20547;-83
2023/04/28 08:13:48;;;;;;;0.10;0.10;;;11.60;99.90;;;;;;5035210;28;20640;-82
2023/04/28 08:16:13;;;;;;;0.10;0.10;;;11.80;99.90;;;;;;5039704;28;20540;-83
2023/04/28 08:18:39;;;;;;;0.10;0.10;;;12.00;99.90;;;;;;5037616;28;20631;-83
2023/04/28 08:21:05;;;;;;;0.10;0.10;;;12.10;99.90;;;;;;5048032;28;20401;-83
2023/04/28 08:23:32;;;;;;;0.00;0.00;;;12.30;99.90;;;;;;5048126;28;20457;-82
2023/04/28 08:25:57;;;;;;;0.03;0.03;;;12.00;99.90;;;;;;5033613;28;20682;-82
2023/04/28 08:28:23;;;;;;;0.10;0.10;;;11.90;99.90;;;;;;5043590;28;20438;-82
2023/04/28 08:30:49;;;;;;;0.10;0.10;;;12.00;99.90;;;;;;5030458;28;20184;-83
2023/04/28 08:33:14;;;;;;;0.03;0.03;;;12.00;99.90;;;;;;5044681;28;20198;-82
2023/04/28 08:35:40;;;;;;;0.10;0.10;;;12.00;99.90;;;;;;5045417;28;20265;-82
2023/04/28 08:38:06;;;;;;;0.07;0.07;;;12.10;99.90;;;;;;5040649;28;20602;-82
2023/04/28 08:40:32;;;;;;;0.03;0.03;;;12.10;99.90;;;;;;5048004;28;20606;-83
2023/04/28 08:42:58;;;;;;;0.10;0.10;;;12.10;99.90;;;;;;5034996;28;20493;-84
2023/04/28 08:45:24;;;;;;;0.00;0.00;;;12.20;99.90;;;;;;5033194;28;22092;-83
2023/04/28 08:47:51;;;;;;;0.03;0.03;;;12.40;99.90;;;;;;5032746;28;20460;-83
2023/04/28 08:50:21;;;;;;;0.10;0.10;;;12.40;99.90;;;;;;5044588;28;20494;-83
2023/04/28 08:52:47;;;;;;;0.00;0.00;;;12.50;99.90;;;;;;5039095;28;20465;-81
2023/04/28 08:55:13;;;;;;;0.00;0.00;;;12.40;99.90;;;;;;5041120;28;20445;-81
2023/04/28 08:57:44;;;;;;;0.00;0.00;;;12.60;99.90;;;;;;5042145;28;20246;-82
2023/04/28 09:00:10;;;;;;;0.03;0.03;;;12.60;99.90;;;;;;5050311;28;20182;-82
2023/04/28 09:02:36;;;;;;;0.10;0.10;;;12.10;99.90;;;;;;5065639;28;20417;-82
2023/04/28 09:05:06;;;;;;;0.00;0.00;;;12.30;99.90;;;;;;5049141;28;20413;-82
2023/04/28 09:07:32;;;;;;;0.10;0.10;;;12.60;99.90;;;;;;5049504;28;20442;-82
2023/04/28 09:10:20;;;;;;;0.10;0.10;;;12.60;99.90;;;;;;5033112;28;20528;-82
2023/04/28 09:12:47;;;;;;;0.10;0.10;;;12.60;99.90;;;;;;5037713;28;20180;-81
2023/04/28 09:15:27;;;;;;;0.03;0.03;;;12.70;99.90;;;;;;5041392;28;20506;-82
2023/04/28 09:17:53;;;;;;;0.10;0.10;;;12.30;99.90;;;;;;5037568;28;20616;-81
2023/04/28 09:20:20;;;;;;;0.03;0.03;;;12.70;99.90;;;;;;5033622;28;21058;-81
2023/04/28 09:22:46;;;;;;;0.10;0.10;;;13.10;99.90;;;;;;5040798;28;20668;-81
2023/04/28 09:25:11;;;;;;;0.00;0.00;;;13.30;99.90;;;;;;5043839;28;20458;-81
2023/04/28 09:27:37;;;;;;;0.00;0.00;;;13.30;96.50;;;;;;5049678;28;20661;-83
2023/04/28 09:30:03;;;;;;;0.00;0.00;;;13.40;96.70;;;;;;5044530;28;21164;-83
2023/04/28 09:32:29;;;;;;;0.00;0.00;;;13.80;98.20;;;;;;5038461;28;20673;-84
2023/04/28 09:34:55;;;;;;;0.00;0.00;;;13.90;97.30;;;;;;5043456;28;20506;-82
2023/04/28 09:37:23;;;;;;;0.00;0.00;;;14.00;95.60;;;;;;5032635;28;20486;-84
2023/04/28 09:39:53;;;;;;;0.00;0.00;;;13.50;92.70;;;;;;5037087;28;20589;-82
2023/04/28 09:42:33;;;;;;;0.00;0.00;;;13.40;93.50;;;;;;5030162;28;20572;-82
2023/04/28 09:45:09;;;;;;;0.00;0.00;;;13.70;96.10;;;;;;5031405;28;21439;-82
2023/04/28 09:47:40;;;;;;;0.00;0.00;;;14.00;96.10;;;;;;5034215;28;20454;-83
2023/04/28 09:50:08;;;;;;;0.00;0.00;;;14.70;96.20;;;;;;5037828;28;20524;-83
2023/04/28 09:52:35;;;;;;;0.00;0.00;;;15.10;95.00;;;;;;5048224;28;21329;-83
2023/04/28 09:55:05;;;;;;;0.00;0.00;;;15.30;96.10;;;;;;5037647;28;20445;-83
2023/04/28 09:57:34;;;;;;;0.00;0.00;;;15.30;92.10;;;;;;5032350;28;20592;-83
2023/04/28 10:00:01;;;;;;;0.00;0.00;;;15.60;92.00;;;;;;5039924;28;20528;-83
2023/04/28 10:02:27;;;;;;;0.00;0.00;;;15.90;91.20;;;;;;5041580;28;20551;-83
2023/04/28 10:04:53;;;;;;;0.00;0.00;;;16.10;92.40;;;;;;5049486;28;20873;-85
2023/04/28 10:07:20;;;;;;;0.00;0.00;;;15.80;91.40;;;;;;5041759;28;20537;-83
2023/04/28 10:09:49;;;;;;;0.00;0.00;;;15.60;91.90;;;;;;5036382;28;20195;-80
2023/04/28 10:12:19;;;;;;;0.00;0.00;;;15.60;91.70;;;;;;5039188;28;20457;-80
2023/04/28 10:14:46;;;;;;;0.00;0.00;;;15.90;93.10;;;;;;5040421;28;20487;-80
2023/04/28 10:17:13;;;;;;;0.00;0.00;;;15.90;95.10;;;;;;5041400;28;20535;-80
2023/04/28 10:19:40;;;;;;;0.00;0.00;;;16.20;96.40;;;;;;5034663;28;20512;-85
2023/04/28 10:22:44;;;;;;;0.00;0.00;;;16.60;95.00;;;;;;5047164;28;20433;-81
2023/04/28 10:25:30;;;;;;;0.00;0.00;;;16.40;93.20;;;;;;5036229;28;20440;-82
2023/04/28 10:27:58;;;;;;;0.00;0.00;;;16.30;94.70;;;;;;5046671;28;20429;-86
2023/04/28 10:30:27;;;;;;;0.00;0.00;;;15.90;93.40;;;;;;5036650;28;20972;-84
2023/04/28 10:33:05;;;;;;;0.00;0.00;;;15.80;92.90;;;;;;5029922;28;20808;-84
2023/04/28 10:35:31;;;;;;;0.00;0.00;;;15.90;92.80;;;;;;5030084;28;20950;-85
2023/04/28 10:38:07;;;;;;;0.00;0.00;;;16.10;96.10;;;;;;5030470;28;20496;-83
2023/04/28 10:40:37;;;;;;;0.00;0.00;;;16.40;95.10;;;;;;5037822;28;20190;-83
2023/04/28 10:43:04;;;;;;;0.00;0.00;;;16.30;95.50;;;;;;5040789;28;20477;-85
2023/04/28 10:45:48;;;;;;;0.00;0.00;;;15.60;92.50;;;;;;5035762;28;20434;-84
2023/04/28 10:48:17;;;;;;;0.00;0.00;;;15.70;94.40;;;;;;5048843;28;20421;-84
2023/04/28 10:51:01;;;;;;;0.00;0.00;;;15.90;94.90;;;;;;5044399;28;20437;-84
2023/04/28 10:53:45;;;;;;;0.00;0.00;;;15.70;93.40;;;;;;5045727;28;20469;-83
2023/04/28 10:56:19;;;;;;;0.00;0.00;;;16.20;93.80;;;;;;5043789;28;20818;-84
2023/04/28 10:58:45;;;;;;;0.00;0.00;;;16.50;93.40;;;;;;5027763;28;20509;-83
2023/04/28 11:01:20;;;;;;;0.00;0.00;;;17.00;92.10;;;;;;5033419;28;20541;-84
2023/04/28 11:03:46;;;;;;;0.00;0.00;;;17.00;91.80;;;;;;5029742;28;20558;-83
2023/04/28 11:06:25;;;;;;;0.00;0.00;;;17.00;92.50;;;;;;5046268;28;20999;-86
2023/04/28 11:09:11;;;;;;;0.00;0.00;;;16.60;91.10;;;;;;5041047;28;20740;-83
2023/04/28 11:11:38;;;;;;;0.00;0.00;;;17.20;93.50;;;;;;5003318;28;20456;-83
2023/04/28 11:14:19;;;;;;;0.00;0.00;;;17.00;91.20;;;;;;5040674;28;20604;-83
2023/04/28 11:17:03;;;;;;;0.00;0.00;;;16.60;89.80;;;;;;5037673;28;20866;-82
2023/04/28 11:19:37;;;;;;;0.00;0.00;;;17.00;91.10;;;;;;5032646;28;21084;-82
2023/04/28 11:22:12;;;;;;;0.00;0.00;;;16.30;90.20;;;;;;5031313;28;20950;-82
2023/04/28 11:24:37;;;;;;;0.00;0.00;;;16.00;91.00;;;;;;5048538;28;20472;-82
2023/04/28 11:27:03;;;;;;;0.00;0.00;;;16.80;90.70;;;;;;5040236;28;20470;-83
2023/04/28 11:29:39;;;;;;;0.00;0.00;;;17.30;91.10;;;;;;5030117;28;20240;-85
2023/04/28 11:32:07;;;;;;;0.00;0.00;;;17.30;88.50;;;;;;5035287;28;20176;-83
2023/04/28 11:34:33;;;;;;;0.00;0.00;;;17.60;88.30;;;;;;5030792;28;20438;-82
2023/04/28 11:36:59;;;;;;;0.00;0.00;;;17.80;90.70;;;;;;5029473;28;20557;-83
2023/04/28 11:39:34;;;;;;;0.00;0.00;;;17.50;89.80;;;;;;5054861;28;20536;-83
2023/04/28 11:42:02;;;;;;;0.00;0.00;;;18.20;90.20;;;;;;5042583;28;20226;-82
2023/04/28 11:44:29;;;;;;;0.00;0.00;;;17.90;89.40;;;;;;5040871;28;20527;-82
2023/04/28 11:46:58;;;;;;;0.00;0.00;;;17.70;89.20;;;;;;5037421;28;20430;-83
2023/04/28 11:49:27;;;;;;;0.00;0.00;;;17.70;88.60;;;;;;5041551;28;20496;-82
2023/04/28 11:51:53;;;;;;;0.00;0.00;;;18.20;91.20;;;;;;5035405;28;20441;-83
2023/04/28 11:54:25;;;;;;;0.00;0.00;;;18.80;90.90;;;;;;5044197;28;20941;-82
2023/04/28 11:56:52;;;;;;;0.00;0.00;;;19.30;90.90;;;;;;5050406;28;20460;-84
2023/04/28 11:59:20;;;;;;;0.00;0.00;;;18.70;92.40;;;;;;5051016;28;20967;-84
2023/04/28 12:01:50;;;;;;;0.00;0.00;;;18.20;92.40;;;;;;5045196;28;20542;-83
2023/04/28 12:04:36;;;;;;;0.00;0.00;;;18.50;85.00;;;;;;5044984;28;20454;-83
2023/04/28 12:07:13;;;;;;;0.00;0.00;;;18.10;85.10;;;;;;5033727;28;20806;-84
2023/04/28 12:09:44;;;;;;;0.00;0.00;;;17.40;83.80;;;;;;5048742;28;20451;-83
2023/04/28 12:12:26;;;;;;;0.00;0.00;;;17.70;84.20;;;;;;5054367;28;20444;-83
2023/04/28 12:15:06;;;;;;;0.00;0.00;;;17.40;80.90;;;;;;5042728;28;20480;-84
2023/04/28 12:17:38;;;;;;;0.00;0.00;;;17.40;84.40;;;;;;5045818;28;20484;-83
2023/04/28 12:20:36;;;;;;;0.00;0.00;;;17.00;85.50;;;;;;5042666;28;20912;-83
2023/04/28 12:23:02;;;;;;;0.00;0.00;;;17.40;85.70;;;;;;5035520;28;20579;-84
2023/04/28 12:25:27;;;;;;;0.00;0.00;;;17.20;83.30;;;;;;5053155;28;20513;-84
2023/04/28 12:28:06;;;;;;;0.00;0.00;;;17.10;85.40;;;;;;5048765;28;20214;-83
2023/04/28 12:30:42;;;;;;;0.00;0.00;;;17.10;85.00;;;;;;5049276;28;20191;-84
2023/04/28 12:33:27;;;;;;;0.00;0.00;;;17.60;84.60;;;;;;5038276;28;20450;-82
2023/04/28 12:35:55;;;;;;;0.00;0.00;;;17.90;85.70;;;;;;5032697;28;20934;-83
2023/04/28 12:38:20;;;;;;;0.00;0.00;;;18.80;91.00;;;;;;5044622;28;20480;-81
2023/04/28 12:40:46;;;;;;;0.00;0.00;;;18.60;92.80;;;;;;5051140;28;20449;-81
2023/04/28 12:43:11;;;;;;;0.00;0.00;;;18.40;90.90;;;;;;5041771;28;20672;-85
2023/04/28 12:45:38;;;;;;;0.00;0.00;;;18.20;90.20;;;;;;5037191;28;20211;-82
2023/04/28 12:48:03;;;;;;;0.00;0.00;;;17.80;92.60;;;;;;5039683;28;20187;-84
2023/04/28 12:50:31;;;;;;;0.00;0.00;;;18.30;91.80;;;;;;5048282;28;20450;-83
2023/04/28 12:52:57;;;;;;;0.00;0.00;;;17.80;92.80;;;;;;5037452;28;20282;-81